createdAt,value
2018-05-26T00:00:28.316Z,8.97
2018-05-26T00:02:55.948Z,9.10
2018-05-26T00:05:23.602Z,8.77
2018-05-26T00:07:51.209Z,7.90
2018-05-26T00:10:18.930Z,7.13
2018-05-26T00:12:46.545Z,7.10
2018-05-26T00:15:14.188Z,7.70
2018-05-26T00:17:41.793Z,8.50
2018-05-26T00:20:09.422Z,9.27
2018-05-26T00:22:37.034Z,8.03
2018-05-26T00:25:04.709Z,7.63
2018-05-26T00:27:32.328Z,9.63
2018-05-26T00:30:00.032Z,8.73
2018-05-26T00:32:27.694Z,9.50
2018-05-26T00:34:55.367Z,9.23
2018-05-26T00:37:22.973Z,9.70
2018-05-26T00:39:50.607Z,10.40
2018-05-26T00:42:18.218Z,9.07
2018-05-26T00:44:45.908Z,9.53
2018-05-26T00:47:13.515Z,9.30
2018-05-26T00:49:41.142Z,9.77
2018-05-26T00:52:08.752Z,8.70
2018-05-26T00:54:36.390Z,10.07
2018-05-26T00:57:04.102Z,9.50
2018-05-26T00:59:31.734Z,10.33
2018-05-26T01:01:59.346Z,9.67
2018-05-26T01:04:27.099Z,9.90
2018-05-26T01:06:54.750Z,8.90
2018-05-26T01:09:22.423Z,8.87
2018-05-26T01:11:50.063Z,9.37
2018-05-26T01:14:17.679Z,10.03
2018-05-26T01:16:45.402Z,9.10
2018-05-26T01:19:13.023Z,7.67
2018-05-26T01:21:40.650Z,8.70
2018-05-26T01:24:08.262Z,8.70
2018-05-26T01:26:35.890Z,8.30
2018-05-26T01:29:03.510Z,10.13
2018-05-26T01:31:31.152Z,8.70
2018-05-26T01:33:58.834Z,9.77
2018-05-26T01:36:26.512Z,10.30
2018-05-26T01:38:54.261Z,11.70
2018-05-26T01:41:21.899Z,9.87
2018-05-26T01:43:49.515Z,11.80
2018-05-26T01:46:17.156Z,12.07
2018-05-26T01:48:44.779Z,11.30
2018-05-26T01:51:12.479Z,10.87
2018-05-26T01:53:40.099Z,11.90
2018-05-26T01:56:07.735Z,11.17
2018-05-26T01:58:35.355Z,12.90
2018-05-26T02:01:03.000Z,12.17
2018-05-26T02:03:30.619Z,9.70
2018-05-26T02:05:58.254Z,11.07
2018-05-26T02:08:25.871Z,10.93
2018-05-26T02:10:53.506Z,9.87
2018-05-26T02:13:21.115Z,11.57
2018-05-26T02:15:48.799Z,13.93
2018-05-26T02:18:16.459Z,13.87
2018-05-26T02:20:44.123Z,13.73
2018-05-26T02:23:11.763Z,13.77
2018-05-26T02:25:39.447Z,12.60
2018-05-26T02:28:07.112Z,13.33
2018-05-26T02:30:34.726Z,12.47
2018-05-26T02:33:02.431Z,11.83
2018-05-26T02:35:30.046Z,12.07
2018-05-26T02:37:57.693Z,11.97
2018-05-26T02:40:25.302Z,13.40
2018-05-26T02:42:52.935Z,12.97
2018-05-26T02:45:20.647Z,12.93
2018-05-26T02:47:48.286Z,13.20
2018-05-26T02:50:15.971Z,12.37
2018-05-26T02:52:43.610Z,14.17
2018-05-26T02:55:11.228Z,13.47
2018-05-26T02:57:38.867Z,11.43
2018-05-26T03:00:06.482Z,13.50
2018-05-26T03:02:34.183Z,12.20
2018-05-26T03:05:07.443Z,10.37
2018-05-26T03:07:40.767Z,10.40
2018-05-26T03:10:14.161Z,11.80
2018-05-26T03:12:47.496Z,11.20
2018-05-26T03:15:14.550Z,11.10
2018-05-26T03:20:40.663Z,11.60
2018-05-26T03:23:08.315Z,9.87
2018-05-26T03:25:35.935Z,11.00
2018-05-26T03:28:03.634Z,11.00
2018-05-26T03:30:31.253Z,9.73
2018-05-26T03:32:58.899Z,12.30
2018-05-26T03:35:26.515Z,12.30
2018-05-26T03:37:54.186Z,11.40
2018-05-26T03:40:21.803Z,11.50
2018-05-26T03:42:49.456Z,11.77
2018-05-26T03:45:17.075Z,12.10
2018-05-26T03:47:44.685Z,11.53
2018-05-26T03:50:12.322Z,11.80
2018-05-26T03:52:39.944Z,10.17
2018-05-26T03:58:34.485Z,12.00
2018-05-26T04:01:02.096Z,10.90
2018-05-26T04:03:29.753Z,10.30
2018-05-26T04:05:57.410Z,8.17
2018-05-26T04:08:25.036Z,8.93
2018-05-26T04:10:52.652Z,9.60
2018-05-26T04:13:20.271Z,10.20
2018-05-26T04:15:47.901Z,9.67
2018-05-26T04:18:15.571Z,9.33
2018-05-26T04:20:43.235Z,9.37
2018-05-26T04:23:10.846Z,9.50
2018-05-26T04:25:38.555Z,8.83
2018-05-26T04:28:06.173Z,9.03
2018-05-26T04:30:33.816Z,11.70
2018-05-26T04:33:01.422Z,12.00
2018-05-26T04:35:29.082Z,10.87
2018-05-26T04:37:56.766Z,11.70
2018-05-26T04:40:24.403Z,12.63
2018-05-26T04:42:52.018Z,12.60
2018-05-26T04:45:19.754Z,10.60
2018-05-26T04:47:47.414Z,11.47
2018-05-26T04:50:15.085Z,11.10
2018-05-26T04:52:42.698Z,9.80
2018-05-26T04:55:10.406Z,10.67
2018-05-26T04:57:38.023Z,10.37
2018-05-26T05:00:05.726Z,10.67
2018-05-26T05:02:33.395Z,11.00
2018-05-26T05:05:01.049Z,9.57
2018-05-26T05:07:27.949Z,12.40
2018-05-26T05:09:55.588Z,12.63
2018-05-26T05:12:23.223Z,13.67
2018-05-26T05:14:50.878Z,13.37
2018-05-26T05:17:18.546Z,13.43
2018-05-26T05:19:46.159Z,12.67
2018-05-26T05:22:13.790Z,13.60
2018-05-26T05:24:41.399Z,12.67
2018-05-26T05:27:09.098Z,14.23
2018-05-26T05:29:36.707Z,14.47
2018-05-26T05:32:04.414Z,13.10
2018-05-26T05:34:32.107Z,17.97
2018-05-26T05:36:59.743Z,16.63
2018-05-26T05:39:27.410Z,15.73
2018-05-26T05:41:55.046Z,16.70
2018-05-26T05:44:22.738Z,12.90
2018-05-26T05:46:50.395Z,14.47
2018-05-26T05:49:18.006Z,13.07
2018-05-26T05:51:45.651Z,11.30
2018-05-26T05:54:13.258Z,11.60
2018-05-26T05:56:40.943Z,11.27
2018-05-26T05:59:08.559Z,11.17
2018-05-26T06:01:36.199Z,10.43
2018-05-26T06:04:03.819Z,11.73
2018-05-26T06:06:31.502Z,11.67
2018-05-26T06:08:59.123Z,15.57
2018-05-26T06:11:26.764Z,14.30
2018-05-26T06:13:54.485Z,13.57
2018-05-26T06:16:22.126Z,12.03
2018-05-26T06:18:49.803Z,12.70
2018-05-26T06:21:17.448Z,15.60
2018-05-26T06:23:45.206Z,15.30
2018-05-26T06:26:12.891Z,16.10
2018-05-26T06:28:40.507Z,19.83
2018-05-26T06:31:08.166Z,18.63
2018-05-26T06:33:35.879Z,18.70
2018-05-26T06:36:03.495Z,19.47
2018-05-26T06:38:31.135Z,20.43
2018-05-26T06:40:58.862Z,19.70
2018-05-26T06:43:26.526Z,18.93
2018-05-26T06:45:54.194Z,18.67
2018-05-26T06:48:21.855Z,18.50
2018-05-26T06:50:49.468Z,18.90
2018-05-26T06:53:17.111Z,17.23
2018-05-26T06:55:44.731Z,18.07
2018-05-26T06:58:12.362Z,16.70
2018-05-26T07:00:39.994Z,17.80
2018-05-26T07:03:07.722Z,19.07
2018-05-26T07:05:35.381Z,18.27
2018-05-26T07:08:03.014Z,15.57
2018-05-26T07:10:30.636Z,17.20
2018-05-26T07:12:58.279Z,15.70
2018-05-26T07:15:25.939Z,16.93
2018-05-26T07:17:53.578Z,16.00
2018-05-26T07:20:21.189Z,17.53
2018-05-26T07:22:48.923Z,14.57
2018-05-26T07:25:16.545Z,15.30
2018-05-26T07:27:44.180Z,14.97
2018-05-26T07:30:11.796Z,14.73
2018-05-26T07:32:39.474Z,14.30
2018-05-26T07:35:07.135Z,15.17
2018-05-26T07:37:34.807Z,14.17
2018-05-26T07:40:02.421Z,15.73
2018-05-26T07:42:30.058Z,14.03
2018-05-26T07:44:57.681Z,13.87
2018-05-26T07:47:25.306Z,13.30
2018-05-26T07:49:53.011Z,14.80
2018-05-26T07:52:20.677Z,13.67
2018-05-26T07:54:48.326Z,13.03
2018-05-26T07:57:15.991Z,14.67
2018-05-26T07:59:43.621Z,13.50
2018-05-26T08:02:11.234Z,15.67
2018-05-26T08:04:38.877Z,14.20
2018-05-26T08:07:06.650Z,12.70
2018-05-26T08:09:34.295Z,13.50
2018-05-26T08:12:01.969Z,12.77
2018-05-26T08:14:29.610Z,14.33
2018-05-26T08:16:57.231Z,12.63
2018-05-26T08:19:24.949Z,10.63
2018-05-26T08:21:52.618Z,12.43
2018-05-26T08:24:20.258Z,13.80
2018-05-26T08:26:47.948Z,14.13
2018-05-26T08:29:15.598Z,13.60
2018-05-26T08:31:43.216Z,13.80
2018-05-26T08:34:10.854Z,13.20
2018-05-26T08:36:38.467Z,14.00
2018-05-26T08:39:06.161Z,12.80
2018-05-26T08:41:33.775Z,12.83
2018-05-26T08:44:01.415Z,12.93
2018-05-26T08:46:29.031Z,13.20
2018-05-26T08:48:56.665Z,13.53
2018-05-26T08:51:24.363Z,13.10
2018-05-26T08:53:52.025Z,12.67
2018-05-26T08:56:19.694Z,11.30
2018-05-26T08:58:47.451Z,12.10
2018-05-26T09:01:15.059Z,10.60
2018-05-26T09:03:42.683Z,10.27
2018-05-26T09:06:10.332Z,11.27
2018-05-26T09:08:38.003Z,9.20
2018-05-26T09:11:05.662Z,10.83
2018-05-26T09:13:33.321Z,9.07
2018-05-26T09:16:00.950Z,9.47
2018-05-26T09:18:28.650Z,10.07
2018-05-26T09:20:56.283Z,11.87
2018-05-26T09:23:23.982Z,11.73
2018-05-26T09:25:51.644Z,10.60
2018-05-26T09:28:19.259Z,13.10
2018-05-26T09:30:46.960Z,13.10
2018-05-26T09:33:14.626Z,12.57
2018-05-26T09:35:42.266Z,13.37
2018-05-26T09:38:09.946Z,12.50
2018-05-26T09:40:37.620Z,11.73
2018-05-26T09:43:05.238Z,13.00
2018-05-26T09:45:32.896Z,11.90
2018-05-26T09:48:00.514Z,12.70
2018-05-26T09:50:28.152Z,13.20
2018-05-26T09:52:55.817Z,12.30
2018-05-26T09:55:23.493Z,13.30
2018-05-26T09:57:51.111Z,13.23
2018-05-26T10:00:18.771Z,12.20
2018-05-26T10:02:46.392Z,12.30
2018-05-26T10:05:14.035Z,11.33
2018-05-26T10:07:41.655Z,11.57
2018-05-26T10:10:09.292Z,11.10
2018-05-26T10:12:37.033Z,10.57
2018-05-26T10:15:04.650Z,9.80
2018-05-26T10:17:32.348Z,9.63
2018-05-26T10:20:00.034Z,9.60
2018-05-26T10:22:27.638Z,9.13
2018-05-26T10:24:55.335Z,7.80
2018-05-26T10:27:22.999Z,8.20
2018-05-26T10:29:50.611Z,8.40
2018-05-26T10:32:18.334Z,8.80
2018-05-26T10:34:45.956Z,8.57
2018-05-26T10:37:13.601Z,7.90
2018-05-26T10:39:41.305Z,7.00
2018-05-26T10:42:08.934Z,5.90
2018-05-26T10:44:36.626Z,5.53
2018-05-26T10:47:04.300Z,5.90
2018-05-26T10:49:31.956Z,5.30
2018-05-26T10:51:59.585Z,5.47
2018-05-26T10:57:01.186Z,4.53
2018-05-26T10:59:28.794Z,4.70
2018-05-26T11:01:56.519Z,4.27
2018-05-26T11:04:24.138Z,4.20
2018-05-26T11:06:51.834Z,4.00
2018-05-26T11:09:19.441Z,4.80
2018-05-26T11:11:47.058Z,4.70
2018-05-26T11:14:14.690Z,4.60
2018-05-26T11:16:42.310Z,5.00
2018-05-26T11:19:09.942Z,4.77
2018-05-26T11:21:37.555Z,4.20
2018-05-26T11:24:05.478Z,4.80
2018-05-26T11:26:32.820Z,4.57
2018-05-26T11:29:00.504Z,5.37
2018-05-26T11:31:28.087Z,4.30
2018-05-26T11:33:55.818Z,4.87
2018-05-26T11:36:23.478Z,4.60
2018-05-26T11:38:51.146Z,4.13
2018-05-26T11:41:18.754Z,4.87
2018-05-26T11:43:46.468Z,3.93
2018-05-26T11:46:14.135Z,4.67
2018-05-26T11:48:41.790Z,4.20
2018-05-26T11:51:09.395Z,4.07
2018-05-26T11:53:37.123Z,4.57
2018-05-26T11:56:04.780Z,4.60
2018-05-26T11:58:32.447Z,4.50
2018-05-26T12:01:00.111Z,4.50
2018-05-26T12:03:27.747Z,4.13
2018-05-26T12:05:55.528Z,4.37
2018-05-26T12:08:23.155Z,3.97
2018-05-26T12:10:50.816Z,4.10
2018-05-26T12:13:18.430Z,4.60
2018-05-26T12:15:46.034Z,4.33
2018-05-26T12:18:13.665Z,3.83
2018-05-26T12:20:41.399Z,4.10
2018-05-26T12:23:09.072Z,4.30
2018-05-26T12:25:36.726Z,4.97
2018-05-26T12:28:04.335Z,4.20
2018-05-26T12:30:31.961Z,3.80
2018-05-26T12:32:59.572Z,4.00
2018-05-26T12:35:27.279Z,4.07
2018-05-26T12:37:54.939Z,3.80
2018-05-26T12:40:22.575Z,3.77
2018-05-26T12:42:50.186Z,3.93
2018-05-26T12:45:17.826Z,4.00
2018-05-26T12:47:45.497Z,4.93
2018-05-26T12:50:13.159Z,4.30
2018-05-26T12:52:40.810Z,3.60
2018-05-26T12:55:08.447Z,4.37
2018-05-26T12:57:36.051Z,3.60
2018-05-26T13:00:03.676Z,3.97
2018-05-26T13:02:31.291Z,4.40
2018-05-26T13:04:58.924Z,4.03
2018-05-26T13:07:26.587Z,4.00
2018-05-26T13:09:54.222Z,4.70
2018-05-26T13:12:22.570Z,4.00
2018-05-26T13:14:50.199Z,4.10
2018-05-26T13:17:17.840Z,3.93
2018-05-26T13:19:45.513Z,4.43
2018-05-26T13:22:13.168Z,4.70
2018-05-26T13:24:40.803Z,4.30
2018-05-26T13:27:08.405Z,5.53
2018-05-26T13:29:36.070Z,5.47
2018-05-26T13:32:03.671Z,5.23
2018-05-26T13:34:31.306Z,5.60
2018-05-26T13:36:58.938Z,5.20
2018-05-26T13:39:26.553Z,5.17
2018-05-26T13:41:54.202Z,5.57
2018-05-26T13:44:21.806Z,5.93
2018-05-26T13:46:49.491Z,5.47
2018-05-26T13:49:17.196Z,5.13
2018-05-26T13:51:44.763Z,5.70
2018-05-26T13:54:12.375Z,5.60
2018-05-26T13:56:40.025Z,5.30
2018-05-26T13:59:07.629Z,5.17
2018-05-26T14:01:35.259Z,6.87
2018-05-26T14:04:02.875Z,5.97
2018-05-26T14:06:30.582Z,6.20
2018-05-26T14:08:58.187Z,5.50
2018-05-26T14:11:25.814Z,5.60
2018-05-26T14:13:53.462Z,5.30
2018-05-26T14:16:21.126Z,5.47
2018-05-26T14:18:49.055Z,4.30
2018-05-26T14:21:16.696Z,6.30
2018-05-26T14:23:44.302Z,5.47
2018-05-26T14:26:11.988Z,6.33
2018-05-26T14:28:39.653Z,7.57
2018-05-26T14:31:07.311Z,6.40
2018-05-26T14:33:34.966Z,6.87
2018-05-26T14:36:02.640Z,6.90
2018-05-26T14:38:30.391Z,6.93
2018-05-26T14:40:58.022Z,5.63
2018-05-26T14:43:25.727Z,5.73
2018-05-26T14:45:53.384Z,5.40
2018-05-26T14:48:20.999Z,6.07
2018-05-26T14:50:48.653Z,6.60
2018-05-26T14:53:16.264Z,6.90
2018-05-26T14:55:43.930Z,6.43
2018-05-26T14:58:11.639Z,7.83
2018-05-26T15:00:39.248Z,7.23
2018-05-26T15:03:06.922Z,7.90
2018-05-26T15:05:34.578Z,6.73
2018-05-26T15:08:02.227Z,8.80
2018-05-26T15:10:29.906Z,8.17
2018-05-26T15:12:57.645Z,8.43
2018-05-26T15:15:25.225Z,8.57
2018-05-26T15:17:52.858Z,9.00
2018-05-26T15:20:20.483Z,9.30
2018-05-26T15:22:48.156Z,8.90
2018-05-26T15:25:15.751Z,9.70
2018-05-26T15:27:43.379Z,8.37
2018-05-26T15:30:11.106Z,9.30
2018-05-26T15:32:38.756Z,11.13
2018-05-26T15:35:06.436Z,10.77
2018-05-26T15:37:34.076Z,10.20
2018-05-26T15:40:01.751Z,10.30
2018-05-26T15:42:29.401Z,10.30
2018-05-26T15:44:57.079Z,11.30
2018-05-26T15:47:24.808Z,9.73
2018-05-26T15:49:52.419Z,8.33
2018-05-26T15:52:20.173Z,8.90
2018-05-26T15:54:47.794Z,8.43
2018-05-26T15:57:15.488Z,8.97
2018-05-26T15:59:43.159Z,8.80
2018-05-26T16:02:10.819Z,8.50
2018-05-26T16:04:38.427Z,8.17
2018-05-26T16:07:06.082Z,7.70
2018-05-26T16:09:33.699Z,8.70
2018-05-26T16:12:01.359Z,9.50
2018-05-26T16:14:28.995Z,9.00
2018-05-26T16:16:56.615Z,8.43
2018-05-26T16:19:24.346Z,8.27
2018-05-26T16:21:51.955Z,9.20
2018-05-26T16:24:19.671Z,8.80
2018-05-26T16:26:47.286Z,7.70
2018-05-26T16:29:15.003Z,7.97
2018-05-26T16:31:42.615Z,7.40
2018-05-26T16:34:10.254Z,7.70
2018-05-26T16:36:37.872Z,7.30
2018-05-26T16:39:06.346Z,7.97
2018-05-26T16:41:33.950Z,7.73
2018-05-26T16:44:01.587Z,7.77
2018-05-26T16:46:29.194Z,7.50
2018-05-26T16:48:56.915Z,7.53
2018-05-26T16:51:24.528Z,8.10
2018-05-26T16:53:52.164Z,7.97
2018-05-26T16:56:19.794Z,7.53
2018-05-26T16:58:47.475Z,6.73
2018-05-26T17:01:15.123Z,7.30
2018-05-26T17:03:42.765Z,6.87
2018-05-26T17:06:10.374Z,8.03
2018-05-26T17:08:38.110Z,7.70
2018-05-26T17:11:05.727Z,7.40
2018-05-26T17:13:33.355Z,7.77
2018-05-26T17:16:00.958Z,7.50
2018-05-26T17:18:28.581Z,7.53
2018-05-26T17:20:56.823Z,6.80
2018-05-26T17:23:24.435Z,6.57
2018-05-26T17:25:52.230Z,7.07
2018-05-26T17:28:19.851Z,7.20
2018-05-26T17:30:47.589Z,6.30
2018-05-26T17:33:15.219Z,6.53
2018-05-26T17:35:42.871Z,5.93
2018-05-26T17:38:10.475Z,6.50
2018-05-26T17:40:38.125Z,6.10
2018-05-26T17:43:05.735Z,7.00
2018-05-26T17:45:33.464Z,5.30
2018-05-26T17:48:01.082Z,6.33
2018-05-26T17:50:29.238Z,5.83
2018-05-26T17:52:56.842Z,5.30
2018-05-26T17:55:24.493Z,5.30
2018-05-26T17:57:52.097Z,5.53
2018-05-26T18:00:19.727Z,5.60
2018-05-26T18:02:47.399Z,6.10
2018-05-26T18:05:15.064Z,7.73
2018-05-26T18:07:42.683Z,7.20
2018-05-26T18:10:10.387Z,8.60
2018-05-26T18:12:38.050Z,7.20
2018-05-26T18:15:05.755Z,8.20
2018-05-26T18:17:33.367Z,7.30
2018-05-26T18:20:01.003Z,6.80
2018-05-26T18:22:28.699Z,7.03
2018-05-26T18:24:56.334Z,7.73
2018-05-26T18:27:24.019Z,7.70
2018-05-26T18:29:51.654Z,8.23
2018-05-26T18:32:19.343Z,9.50
2018-05-26T18:34:46.955Z,8.83
2018-05-26T18:37:14.595Z,10.27
2018-05-26T18:39:42.211Z,8.70
2018-05-26T18:42:09.846Z,8.33
2018-05-26T18:44:37.450Z,8.80
2018-05-26T18:47:05.082Z,9.13
2018-05-26T18:49:32.690Z,8.27
2018-05-26T18:52:01.051Z,8.73
2018-05-26T18:54:28.718Z,8.63
2018-05-26T18:56:56.380Z,9.60
2018-05-26T18:59:23.994Z,10.57
2018-05-26T19:01:51.630Z,10.90
2018-05-26T19:04:19.257Z,9.03
2018-05-26T19:06:46.912Z,10.27
2018-05-26T19:09:14.538Z,11.03
2018-05-26T19:11:42.182Z,12.10
2018-05-26T19:14:09.955Z,11.10
2018-05-26T19:16:37.689Z,11.33
2018-05-26T19:19:05.352Z,11.90
2018-05-26T19:21:33.106Z,11.10
2018-05-26T19:24:01.047Z,11.40
2018-05-26T19:26:28.691Z,12.57
2018-05-26T19:28:56.403Z,11.17
2018-05-26T19:31:24.094Z,10.33
2018-05-26T19:33:51.734Z,9.50
2018-05-26T19:36:19.391Z,11.17
2018-05-26T19:38:47.012Z,10.00
2018-05-26T19:41:14.650Z,10.27
2018-05-26T19:43:42.271Z,10.17
2018-05-26T19:46:09.927Z,11.67
2018-05-26T19:48:37.598Z,9.87
2018-05-26T19:51:05.259Z,9.63
2018-05-26T19:53:32.918Z,9.97
2018-05-26T19:56:00.582Z,9.40
2018-05-26T19:58:28.252Z,9.50
2018-05-26T20:00:55.925Z,10.27
2018-05-26T20:03:23.568Z,9.57
2018-05-26T20:05:51.179Z,9.90
2018-05-26T20:08:18.891Z,8.40
2018-05-26T20:10:46.503Z,10.63
2018-05-26T20:13:14.155Z,10.90
2018-05-26T20:15:41.769Z,10.70
2018-05-26T20:18:09.411Z,10.77
2018-05-26T20:20:37.022Z,8.70
2018-05-26T20:23:04.772Z,10.47
2018-05-26T20:25:32.418Z,9.97
2018-05-26T20:28:00.046Z,7.50
2018-05-26T20:30:27.650Z,8.30
2018-05-26T20:32:55.286Z,8.27
2018-05-26T20:35:22.886Z,8.30
2018-05-26T20:37:50.519Z,8.27
2018-05-26T20:40:18.125Z,8.07
2018-05-26T20:42:45.761Z,8.97
2018-05-26T20:45:13.369Z,7.57
2018-05-26T20:47:40.999Z,6.90
2018-05-26T20:50:08.694Z,9.00
2018-05-26T20:52:36.271Z,8.43
2018-05-26T20:55:03.874Z,7.33
2018-05-26T20:57:31.531Z,8.30
2018-05-26T20:59:59.159Z,8.13
2018-05-26T21:02:26.804Z,8.97
2018-05-26T21:04:54.431Z,8.23
2018-05-26T21:07:22.358Z,9.23
2018-05-26T21:09:49.987Z,9.50
2018-05-26T21:12:17.705Z,8.20
2018-05-26T21:14:45.334Z,9.70
2018-05-26T21:17:12.947Z,9.87
2018-05-26T21:19:40.583Z,8.77
2018-05-26T21:22:08.254Z,10.73
2018-05-26T21:24:35.919Z,8.90
2018-05-26T21:27:03.578Z,10.80
2018-05-26T21:29:31.215Z,9.87
2018-05-26T21:31:58.824Z,9.60
2018-05-26T21:34:26.567Z,11.83
2018-05-26T21:36:54.178Z,9.37
2018-05-26T21:39:21.890Z,10.20
2018-05-26T21:41:49.554Z,10.37
2018-05-26T21:44:17.213Z,12.93
2018-05-26T21:46:44.830Z,13.63
2018-05-26T21:49:12.543Z,12.00
2018-05-26T21:51:40.163Z,11.57
2018-05-26T21:54:07.803Z,13.13
2018-05-26T21:56:35.419Z,15.73
2018-05-26T21:59:03.059Z,12.90
2018-05-26T22:01:30.752Z,12.53
2018-05-26T22:03:58.387Z,14.10
2018-05-26T22:06:26.010Z,13.60
2018-05-26T22:08:53.647Z,14.43
2018-05-26T22:11:21.258Z,13.20
2018-05-26T22:13:48.909Z,14.20
2018-05-26T22:16:16.523Z,12.57
2018-05-26T22:18:44.178Z,13.40
2018-05-26T22:21:11.814Z,15.93
2018-05-26T22:23:39.435Z,15.97
2018-05-26T22:26:07.066Z,15.10
2018-05-26T22:28:34.682Z,16.50
2018-05-26T22:31:02.320Z,17.00
2018-05-26T22:33:29.933Z,14.20
2018-05-26T22:35:57.571Z,14.90
2018-05-26T22:38:25.270Z,15.00
2018-05-26T22:40:52.903Z,15.03
2018-05-26T22:43:20.604Z,17.13
2018-05-26T22:45:48.243Z,16.07
2018-05-26T22:48:15.858Z,18.70
2018-05-26T22:50:43.490Z,22.13
2018-05-26T22:53:11.097Z,19.73
2018-05-26T22:55:38.743Z,19.37
2018-05-26T22:58:06.479Z,19.67
2018-05-26T23:00:34.125Z,26.60
2018-05-26T23:03:01.745Z,23.00
2018-05-26T23:05:29.467Z,21.80
2018-05-26T23:07:57.083Z,22.87
2018-05-26T23:10:24.727Z,20.70
2018-05-26T23:12:52.341Z,27.50
2018-05-26T23:15:19.981Z,32.10
2018-05-26T23:17:47.671Z,37.60
2018-05-26T23:20:15.314Z,28.00
2018-05-26T23:22:42.994Z,36.50
2018-05-26T23:25:10.636Z,38.33
2018-05-26T23:27:38.268Z,39.53
2018-05-26T23:30:05.984Z,38.97
2018-05-26T23:32:33.626Z,37.67
2018-05-26T23:35:01.311Z,38.60
2018-05-26T23:37:28.971Z,36.47
2018-05-26T23:39:56.586Z,37.57
2018-05-26T23:42:24.285Z,35.93
2018-05-26T23:44:51.950Z,37.67
2018-05-26T23:47:19.620Z,35.57
2018-05-26T23:49:47.230Z,36.93
2018-05-26T23:52:14.941Z,34.87
2018-05-26T23:54:42.607Z,39.07
2018-05-26T23:57:10.266Z,36.20
2018-05-26T23:59:37.882Z,38.63
